Time;durP1;ratioP1;P1;durP2;ratioP2;P2;SDS_P1;SDS_P2;PMS_P1;PMS_P2;Temp;Humidity;BMP_temperature;BMP_pressure;BME280_temperature;BME280_humidity;BME280_pressure;Samples;Min_cycle;Max_cycle;Signal;HPM_P1;HPM_P2
2023/08/02 00:01:03;;;;;;;1999.90;999.90;;;20.50;99.90;;;;;;5034712;28;20021;-72
2023/08/02 00:03:28;;;;;;;1999.90;999.90;;;20.60;99.90;;;;;;5034647;28;20025;-71
2023/08/02 00:05:58;;;;;;;1999.90;999.90;;;20.50;99.90;;;;;;5035141;28;20025;-72
2023/08/02 00:08:25;;;;;;;1999.90;999.90;;;20.60;99.90;;;;;;5034818;28;20080;-71
2023/08/02 00:10:51;;;;;;;1999.90;999.90;;;20.50;99.90;;;;;;5034383;28;20036;-72
2023/08/02 00:13:17;;;;;;;1999.90;999.90;;;20.60;99.90;;;;;;5034383;28;20018;-72
2023/08/02 00:15:43;;;;;;;1999.90;999.90;;;20.60;99.90;;;;;;5033508;28;20487;-70
2023/08/02 00:18:09;;;;;;;1999.90;999.90;;;20.60;99.90;;;;;;5015919;28;20028;-71
2023/08/02 00:20:37;;;;;;;1999.90;999.90;;;20.40;99.90;;;;;;5033495;28;20559;-71
2023/08/02 00:23:03;;;;;;;1999.90;999.90;;;20.30;99.90;;;;;;5016321;28;20021;-71
2023/08/02 00:25:29;;;;;;;1999.90;999.90;;;20.30;99.90;;;;;;5016216;28;20032;-71
2023/08/02 00:27:55;;;;;;;1999.90;999.90;;;20.30;99.90;;;;;;5033939;28;20022;-71
2023/08/02 00:30:20;;;;;;;1999.90;999.90;;;20.30;99.90;;;;;;5034220;28;20029;-71
2023/08/02 00:32:47;;;;;;;1999.90;999.90;;;20.40;99.90;;;;;;5016325;28;20033;-71
2023/08/02 00:35:13;;;;;;;1999.90;999.90;;;20.50;99.90;;;;;;5034704;28;20091;-76
2023/08/02 00:37:40;;;;;;;1999.90;999.90;;;20.50;99.90;;;;;;5017016;28;20025;-72
2023/08/02 00:40:06;;;;;;;1999.90;999.90;;;20.50;99.90;;;;;;5017851;28;20404;-71
2023/08/02 00:42:32;;;;;;;1999.90;999.90;;;20.60;99.90;;;;;;5015937;28;20031;-71
2023/08/02 00:44:57;;;;;;;1999.90;999.90;;;20.60;99.90;;;;;;5035838;28;20025;-79
2023/08/02 00:47:24;;;;;;;1999.90;999.90;;;20.60;99.90;;;;;;5015942;28;20026;-78
2023/08/02 00:49:50;;;;;;;1999.90;999.90;;;20.60;99.90;;;;;;5015677;28;20026;-72
2023/08/02 00:52:16;;;;;;;1999.90;999.90;;;20.60;99.90;;;;;;5033684;28;20037;-72
2023/08/02 00:54:42;;;;;;;1999.90;999.90;;;20.60;99.90;;;;;;5034013;28;20044;-71
2023/08/02 00:57:10;;;;;;;1999.90;999.90;;;20.60;99.90;;;;;;5032650;28;20068;-72
2023/08/02 00:59:38;;;;;;;1999.90;999.90;;;20.70;99.90;;;;;;5015762;28;20488;-72
2023/08/02 01:02:06;;;;;;;1999.90;999.90;;;20.70;99.90;;;;;;5033502;28;20013;-71
2023/08/02 01:04:32;;;;;;;1999.90;999.90;;;20.70;99.90;;;;;;5033327;28;20476;-72
2023/08/02 01:07:02;;;;;;;1999.90;999.90;;;20.80;99.90;;;;;;5033432;28;20021;-72
2023/08/02 01:09:31;;;;;;;1999.90;999.90;;;20.80;99.90;;;;;;5033354;28;20036;-72
2023/08/02 01:12:19;;;;;;;1999.90;999.90;;;20.80;99.90;;;;;;5033253;28;20025;-78
2023/08/02 01:14:50;;;;;;;1999.90;999.90;;;20.80;99.90;;;;;;5014488;28;20029;-71
2023/08/02 01:17:16;;;;;;;1999.90;999.90;;;20.90;99.90;;;;;;5011620;28;20391;-72
2023/08/02 01:19:45;;;;;;;1999.90;999.90;;;20.90;99.90;;;;;;5033222;28;20025;-73
2023/08/02 01:22:11;;;;;;;1999.90;999.90;;;20.90;99.90;;;;;;5033151;28;20035;-72
2023/08/02 01:24:37;;;;;;;1999.90;999.90;;;20.90;99.90;;;;;;5038558;28;20053;-78
2023/08/02 01:27:09;;;;;;;1999.90;999.90;;;21.00;99.90;;;;;;5033150;28;20047;-72
2023/08/02 01:29:37;;;;;;;1999.90;999.90;;;21.00;99.90;;;;;;5033031;28;20026;-72
2023/08/02 01:32:05;;;;;;;1999.90;999.90;;;21.00;99.90;;;;;;5033191;28;20384;-73
2023/08/02 01:34:31;;;;;;;1999.90;999.90;;;21.00;99.90;;;;;;5032896;28;20025;-72
2023/08/02 01:36:57;;;;;;;1999.90;999.90;;;21.00;99.90;;;;;;5033008;28;20075;-78
2023/08/02 01:39:22;;;;;;;1999.90;999.90;;;21.00;99.90;;;;;;5014764;28;20034;-72
2023/08/02 01:41:48;;;;;;;1999.90;999.90;;;21.10;99.90;;;;;;5032881;28;20112;-72
2023/08/02 01:44:14;;;;;;;1999.90;999.90;;;21.10;99.90;;;;;;5011712;28;20046;-72
2023/08/02 01:46:40;;;;;;;1999.90;999.90;;;21.10;99.90;;;;;;5012976;28;20050;-72
2023/08/02 01:49:06;;;;;;;1999.90;999.90;;;21.10;99.90;;;;;;5013090;28;20026;-72
2023/08/02 01:51:31;;;;;;;1999.90;999.90;;;21.10;99.90;;;;;;5013077;28;20026;-74
2023/08/02 01:53:57;;;;;;;1999.90;999.90;;;21.00;99.90;;;;;;5012881;28;20029;-72
2023/08/02 01:56:23;;;;;;;1999.90;999.90;;;21.10;99.90;;;;;;5013087;28;20111;-72
2023/08/02 01:58:48;;;;;;;1999.90;999.90;;;21.10;99.90;;;;;;5011618;28;20025;-72
2023/08/02 02:01:14;;;;;;;1999.90;999.90;;;21.10;99.90;;;;;;5014549;28;20022;-72
2023/08/02 02:03:39;;;;;;;1999.90;999.90;;;21.10;99.90;;;;;;5017016;28;20101;-72
2023/08/02 02:06:05;;;;;;;1999.90;999.90;;;21.10;99.90;;;;;;5017193;28;20378;-72
2023/08/02 02:08:30;;;;;;;1999.90;999.90;;;21.10;99.90;;;;;;5016892;28;20018;-72
2023/08/02 02:10:56;;;;;;;1999.90;999.90;;;21.10;99.90;;;;;;5017007;28;20062;-72
2023/08/02 02:13:24;;;;;;;1999.90;999.90;;;21.10;99.90;;;;;;5016796;28;20025;-72
2023/08/02 02:15:50;;;;;;;1999.90;999.90;;;21.20;99.90;;;;;;5014704;28;20061;-78
2023/08/02 02:18:15;;;;;;;1999.90;999.90;;;21.20;99.90;;;;;;5016677;28;20116;-72
2023/08/02 02:20:41;;;;;;;1999.90;999.90;;;21.20;99.90;;;;;;5016742;28;20161;-73
2023/08/02 02:23:07;;;;;;;1999.90;999.90;;;21.20;99.90;;;;;;5016406;28;20029;-72
2023/08/02 02:25:33;;;;;;;1999.90;999.90;;;21.20;99.90;;;;;;5015407;28;20401;-72
2023/08/02 02:27:58;;;;;;;1999.90;999.90;;;21.20;99.90;;;;;;5016718;28;20050;-71
2023/08/02 02:30:24;;;;;;;1999.90;999.90;;;21.20;99.90;;;;;;5016582;28;20548;-78
2023/08/02 02:32:49;;;;;;;1999.90;999.90;;;21.20;99.90;;;;;;5016361;28;20037;-72
2023/08/02 02:35:15;;;;;;;1999.90;999.90;;;21.20;99.90;;;;;;5016176;28;20061;-73
2023/08/02 02:37:41;;;;;;;1999.90;999.90;;;21.20;99.90;;;;;;5016565;28;20358;-72
2023/08/02 02:40:08;;;;;;;1999.90;999.90;;;21.20;99.90;;;;;;5016160;28;20042;-72
2023/08/02 02:42:34;;;;;;;1999.90;999.90;;;21.20;99.90;;;;;;5018860;28;20097;-78
2023/08/02 02:45:00;;;;;;;1999.90;999.90;;;21.20;99.90;;;;;;5035888;28;20036;-78
2023/08/02 02:47:26;;;;;;;1999.90;999.90;;;21.20;99.90;;;;;;5036198;28;20025;-72
2023/08/02 02:49:52;;;;;;;1999.90;999.90;;;21.20;99.90;;;;;;5035868;28;20450;-72
2023/08/02 02:52:17;;;;;;;1999.90;999.90;;;21.20;99.90;;;;;;5035687;28;20041;-71
2023/08/02 02:54:43;;;;;;;1999.90;999.90;;;21.20;99.90;;;;;;5035934;28;20033;-72
2023/08/02 02:57:09;;;;;;;1999.90;999.90;;;21.30;99.90;;;;;;5035713;28;20443;-72
2023/08/02 02:59:35;;;;;;;1999.90;999.90;;;21.30;99.90;;;;;;5035693;28;20018;-72
2023/08/02 03:02:01;;;;;;;1999.90;999.90;;;21.20;99.90;;;;;;5035870;28;20040;-72
2023/08/02 03:04:27;;;;;;;1999.90;999.90;;;21.30;99.90;;;;;;5035573;28;20091;-71
2023/08/02 03:06:53;;;;;;;1999.90;999.90;;;21.30;99.90;;;;;;5036088;28;20053;-72
2023/08/02 03:09:20;;;;;;;1999.90;999.90;;;21.20;99.90;;;;;;5035336;28;20373;-77
2023/08/02 03:11:46;;;;;;;1999.90;999.90;;;21.30;99.90;;;;;;5035560;28;20026;-72
2023/08/02 03:14:12;;;;;;;1999.90;999.90;;;21.30;99.90;;;;;;5034720;28;20499;-72
2023/08/02 03:16:38;;;;;;;1999.90;999.90;;;21.30;99.90;;;;;;5016742;28;20496;-71
2023/08/02 03:19:04;;;;;;;1999.90;999.90;;;21.30;99.90;;;;;;5035387;28;20060;-71
2023/08/02 03:21:30;;;;;;;1999.90;999.90;;;21.30;99.90;;;;;;5034740;28;20445;-72
2023/08/02 03:23:55;;;;;;;1999.90;999.90;;;21.30;99.90;;;;;;5035266;28;20046;-72
2023/08/02 03:26:21;;;;;;;1999.90;999.90;;;21.30;99.90;;;;;;5035293;28;20014;-71
2023/08/02 03:28:47;;;;;;;1999.90;999.90;;;21.40;99.90;;;;;;5017501;28;20203;-73
2023/08/02 03:31:13;;;;;;;1999.90;999.90;;;21.30;99.90;;;;;;5035090;28;20399;-70
2023/08/02 03:33:38;;;;;;;1999.90;999.90;;;21.40;99.90;;;;;;5035154;28;20025;-78
2023/08/02 03:36:04;;;;;;;1999.90;999.90;;;21.30;99.90;;;;;;5034955;28;20098;-71
2023/08/02 03:38:29;;;;;;;1999.90;999.90;;;21.40;99.90;;;;;;5035243;28;20033;-72
2023/08/02 03:40:56;;;;;;;1999.90;999.90;;;21.40;99.90;;;;;;5035081;28;20450;-72
2023/08/02 03:43:21;;;;;;;1999.90;999.90;;;21.30;99.90;;;;;;5036657;28;20075;-72
2023/08/02 03:45:48;;;;;;;1999.90;999.90;;;21.30;99.90;;;;;;5054725;28;20488;-72
2023/08/02 03:48:14;;;;;;;1999.90;999.90;;;21.40;99.90;;;;;;5054360;28;20379;-72
2023/08/02 03:50:40;;;;;;;1999.90;999.90;;;21.40;99.90;;;;;;5054648;28;20048;-72
2023/08/02 03:53:05;;;;;;;1999.90;999.90;;;21.30;99.90;;;;;;5055063;28;20048;-72
2023/08/02 03:55:31;;;;;;;1999.90;999.90;;;21.30;99.90;;;;;;5054680;28;20028;-72
2023/08/02 03:57:57;;;;;;;1999.90;999.90;;;21.30;99.90;;;;;;5054717;28;20071;-72
2023/08/02 04:00:22;;;;;;;1999.90;999.90;;;21.40;99.90;;;;;;5054320;28;20021;-77
2023/08/02 04:02:48;;;;;;;1999.90;999.90;;;21.30;99.90;;;;;;5041668;28;20017;-72
2023/08/02 04:05:14;;;;;;;1999.90;999.90;;;21.40;99.90;;;;;;5034607;28;20523;-72
2023/08/02 04:07:39;;;;;;;1999.90;999.90;;;21.30;99.90;;;;;;5038930;28;20024;-71
2023/08/02 04:10:06;;;;;;;1999.90;999.90;;;21.30;99.90;;;;;;5048873;28;20041;-72
2023/08/02 04:12:31;;;;;;;1999.90;999.90;;;21.30;99.90;;;;;;5034230;28;20029;-73
2023/08/02 04:14:57;;;;;;;1999.90;999.90;;;21.30;99.90;;;;;;5033483;28;20640;-78
2023/08/02 04:17:25;;;;;;;1999.90;999.90;;;21.30;99.90;;;;;;5034207;28;20025;-72
2023/08/02 04:19:51;;;;;;;1999.90;999.90;;;21.30;99.90;;;;;;5016397;28;20033;-71
2023/08/02 04:22:16;;;;;;;1999.90;999.90;;;21.30;99.90;;;;;;5016310;28;20508;-72
2023/08/02 04:24:42;;;;;;;1999.90;999.90;;;21.30;99.90;;;;;;5015782;28;20025;-73
2023/08/02 04:27:07;;;;;;;1999.90;999.90;;;21.30;99.90;;;;;;5034151;28;20500;-72
2023/08/02 04:29:33;;;;;;;1999.90;999.90;;;21.30;99.90;;;;;;5034275;28;20026;-72
2023/08/02 04:31:59;;;;;;;1999.90;999.90;;;21.40;99.90;;;;;;5034274;28;20025;-71
2023/08/02 04:34:24;;;;;;;1999.90;999.90;;;21.30;99.90;;;;;;5032781;28;20075;-72
2023/08/02 04:36:51;;;;;;;1999.90;999.90;;;21.40;99.90;;;;;;5033931;28;20029;-71
2023/08/02 04:39:17;;;;;;;1999.90;999.90;;;21.40;99.90;;;;;;5034073;28;20080;-77
2023/08/02 04:41:43;;;;;;;1999.90;999.90;;;21.40;99.90;;;;;;5016166;28;20022;-79
2023/08/02 04:44:08;;;;;;;1999.90;999.90;;;21.40;99.90;;;;;;5033840;28;20046;-71
2023/08/02 04:46:34;;;;;;;1999.90;999.90;;;21.40;99.90;;;;;;5015977;28;20071;-72
2023/08/02 04:48:59;;;;;;;1999.90;999.90;;;21.30;99.90;;;;;;5033673;28;20400;-72
2023/08/02 04:51:25;;;;;;;1999.90;999.90;;;21.30;99.90;;;;;;5015761;28;20128;-72
2023/08/02 04:53:51;;;;;;;1999.90;999.90;;;21.30;99.90;;;;;;5033930;28;20061;-72
2023/08/02 04:56:17;;;;;;;1999.90;999.90;;;21.40;99.90;;;;;;5033718;28;20032;-73
2023/08/02 04:58:43;;;;;;;1999.90;999.90;;;21.40;99.90;;;;;;5015783;28;20029;-72
2023/08/02 05:01:09;;;;;;;1999.90;999.90;;;21.40;99.90;;;;;;5033318;28;20064;-71
2023/08/02 05:03:36;;;;;;;1999.90;999.90;;;21.30;99.90;;;;;;5033305;28;20053;-72
2023/08/02 05:06:05;;;;;;;1999.90;999.90;;;21.30;99.90;;;;;;5033462;28;20017;-72
2023/08/02 05:08:36;;;;;;;1999.90;999.90;;;21.30;99.90;;;;;;5033612;28;20427;-71
2023/08/02 05:11:05;;;;;;;1999.90;999.90;;;21.30;99.90;;;;;;5015547;28;20030;-72
2023/08/02 05:13:31;;;;;;;1999.90;999.90;;;21.30;99.90;;;;;;5033102;28;20408;-71
2023/08/02 05:15:57;;;;;;;1999.90;999.90;;;21.40;99.90;;;;;;5032527;28;20059;-72
2023/08/02 05:18:22;;;;;;;1999.90;999.90;;;21.40;99.90;;;;;;5033289;28;20021;-70
2023/08/02 05:20:49;;;;;;;1999.90;999.90;;;21.30;99.90;;;;;;5033218;28;20044;-71
2023/08/02 05:23:15;;;;;;;1999.90;999.90;;;21.30;99.90;;;;;;5032950;28;20025;-71
2023/08/02 05:25:42;;;;;;;1999.90;999.90;;;21.20;99.90;;;;;;5014316;28;20020;-72
2023/08/02 05:28:08;;;;;;;1999.90;999.90;;;21.20;99.90;;;;;;5033077;28;20481;-71
2023/08/02 05:30:36;;;;;;;1999.90;999.90;;;21.20;99.90;;;;;;5033103;28;20052;-76
2023/08/02 05:33:02;;;;;;;1999.90;999.90;;;21.20;99.90;;;;;;5033117;28;20055;-70
2023/08/02 05:35:29;;;;;;;1999.90;999.90;;;21.20;99.90;;;;;;5037060;28;20495;-71
2023/08/02 05:37:56;;;;;;;1999.90;999.90;;;21.20;99.90;;;;;;5040922;28;20033;-71
2023/08/02 05:40:22;;;;;;;1999.90;999.90;;;21.20;99.90;;;;;;5052228;28;20043;-71
2023/08/02 05:42:48;;;;;;;1999.90;999.90;;;21.30;99.90;;;;;;5040160;28;20048;-71
2023/08/02 05:45:14;;;;;;;1999.90;999.90;;;21.30;99.90;;;;;;5014107;28;20485;-77
2023/08/02 05:47:40;;;;;;;1999.90;999.90;;;21.30;99.90;;;;;;5035932;28;20028;-71
2023/08/02 05:50:06;;;;;;;1999.90;999.90;;;21.30;99.90;;;;;;5031415;28;20026;-71
2023/08/02 05:52:32;;;;;;;1999.90;999.90;;;21.40;99.90;;;;;;5013648;28;20035;-71
2023/08/02 05:54:57;;;;;;;1999.90;999.90;;;21.40;99.90;;;;;;5014575;28;20034;-76
2023/08/02 05:57:23;;;;;;;1999.90;999.90;;;21.40;99.90;;;;;;5032063;28;20064;-78
2023/08/02 05:59:49;;;;;;;1999.90;999.90;;;21.40;99.90;;;;;;5032647;28;20029;-71
2023/08/02 06:02:15;;;;;;;1999.90;999.90;;;21.40;99.90;;;;;;5032105;28;20026;-72
2023/08/02 06:04:43;;;;;;;1999.90;999.90;;;21.50;99.90;;;;;;5032097;28;20104;-71
2023/08/02 06:07:09;;;;;;;1999.90;999.90;;;21.50;99.90;;;;;;5030326;28;20025;-72
2023/08/02 06:09:35;;;;;;;1999.90;999.90;;;21.50;99.90;;;;;;5032207;28;20026;-78
2023/08/02 06:12:01;;;;;;;1999.90;999.90;;;21.50;99.90;;;;;;5014732;28;20037;-76
2023/08/02 06:14:26;;;;;;;1999.90;999.90;;;21.50;99.90;;;;;;5031734;28;20037;-71
2023/08/02 06:16:52;;;;;;;1999.90;999.90;;;21.50;99.90;;;;;;5038407;28;20034;-71
2023/08/02 06:19:17;;;;;;;1999.90;999.90;;;21.50;99.90;;;;;;5014229;28;20037;-69
2023/08/02 06:21:43;;;;;;;1999.90;999.90;;;21.50;99.90;;;;;;5030409;28;20033;-71
2023/08/02 06:24:09;;;;;;;1999.90;999.90;;;21.50;99.90;;;;;;5031827;28;20029;-76
2023/08/02 06:26:34;;;;;;;1999.90;999.90;;;21.50;99.90;;;;;;5031703;28;20553;-71
2023/08/02 06:29:00;;;;;;;1999.90;999.90;;;21.50;99.90;;;;;;5031984;28;20519;-70
2023/08/02 06:31:26;;;;;;;1999.90;999.90;;;21.40;99.90;;;;;;5031890;28;20113;-71
2023/08/02 06:33:52;;;;;;;1999.90;999.90;;;21.50;99.90;;;;;;5031023;28;20030;-71
2023/08/02 06:36:17;;;;;;;1999.90;999.90;;;21.50;99.90;;;;;;5030665;28;20056;-71
2023/08/02 06:38:47;;;;;;;1999.90;999.90;;;21.50;99.90;;;;;;5031667;28;20078;-71
2023/08/02 06:41:13;;;;;;;1999.90;999.90;;;21.50;99.90;;;;;;5031767;28;20030;-71
2023/08/02 06:43:38;;;;;;;1999.90;999.90;;;21.50;99.90;;;;;;5031496;28;20045;-70
2023/08/02 06:46:05;;;;;;;1999.90;999.90;;;21.50;99.90;;;;;;5031023;28;20095;-71
2023/08/02 06:48:30;;;;;;;1999.90;999.90;;;21.50;99.90;;;;;;5033623;28;20502;-71
2023/08/02 06:50:56;;;;;;;1999.90;999.90;;;21.50;99.90;;;;;;5032543;28;20029;-71
2023/08/02 06:53:21;;;;;;;1999.90;999.90;;;21.50;99.90;;;;;;5034880;28;20029;-70
2023/08/02 06:55:47;;;;;;;1999.90;999.90;;;21.50;99.90;;;;;;5034134;28;20038;-70
2023/08/02 06:58:13;;;;;;;1999.90;999.90;;;21.50;99.90;;;;;;5034498;28;20029;-71
2023/08/02 07:00:42;;;;;;;1999.90;999.90;;;21.60;99.90;;;;;;5015672;28;20041;-70
2023/08/02 07:03:08;;;;;;;1999.90;999.90;;;21.60;99.90;;;;;;5033074;28;20039;-72
2023/08/02 07:05:34;;;;;;;1999.90;999.90;;;21.60;99.90;;;;;;5034014;28;20037;-76
2023/08/02 07:08:01;;;;;;;1999.90;999.90;;;21.60;99.90;;;;;;5033676;28;20113;-70
2023/08/02 07:10:28;;;;;;;1999.90;999.90;;;21.60;99.90;;;;;;5034635;28;20542;-72
2023/08/02 07:12:55;;;;;;;1999.90;999.90;;;21.60;99.90;;;;;;5035784;28;20572;-71
2023/08/02 07:15:21;;;;;;;1999.90;999.90;;;21.60;99.90;;;;;;5031316;28;20032;-78
2023/08/02 07:17:47;;;;;;;1999.90;999.90;;;21.70;99.90;;;;;;5037171;28;20025;-79
2023/08/02 07:20:14;;;;;;;1999.90;999.90;;;21.70;99.90;;;;;;5034411;28;20116;-70
2023/08/02 07:22:42;;;;;;;1999.90;999.90;;;21.70;99.90;;;;;;5032349;28;20025;-69
2023/08/02 07:25:08;;;;;;;1999.90;999.90;;;21.60;99.90;;;;;;5027562;28;20527;-69
2023/08/02 07:27:34;;;;;;;1999.90;999.90;;;21.70;99.90;;;;;;5008397;28;20056;-69
2023/08/02 07:30:01;;;;;;;1999.90;999.90;;;21.70;99.90;;;;;;5030546;28;20033;-69
2023/08/02 07:32:26;;;;;;;1999.90;999.90;;;21.70;99.90;;;;;;5032988;28;20033;-68
2023/08/02 07:34:52;;;;;;;1999.90;999.90;;;21.70;99.90;;;;;;5041171;28;20504;-69
2023/08/02 07:37:18;;;;;;;1999.90;999.90;;;21.70;99.90;;;;;;5011622;28;20048;-69
2023/08/02 07:39:44;;;;;;;1999.90;999.90;;;21.70;99.90;;;;;;5029396;28;20055;-68
2023/08/02 07:42:10;;;;;;;1999.90;999.90;;;21.70;99.90;;;;;;5032210;28;20060;-77
2023/08/02 07:44:37;;;;;;;1999.90;999.90;;;21.70;99.90;;;;;;5032815;28;20045;-69
2023/08/02 07:47:03;;;;;;;1999.90;999.90;;;21.70;99.90;;;;;;5033194;28;20036;-69
2023/08/02 07:49:30;;;;;;;1999.90;999.90;;;21.70;99.90;;;;;;5032335;28;20025;-69
2023/08/02 07:51:56;;;;;;;1999.90;999.90;;;21.70;99.90;;;;;;5032623;28;20033;-69
2023/08/02 07:54:21;;;;;;;1999.90;999.90;;;21.70;99.90;;;;;;5032778;28;20033;-74
2023/08/02 07:56:47;;;;;;;1999.90;999.90;;;21.60;99.90;;;;;;5032337;28;20033;-78
2023/08/02 07:59:12;;;;;;;1999.90;999.90;;;21.60;99.90;;;;;;5030819;28;20026;-69
2023/08/02 08:01:41;;;;;;;1999.90;999.90;;;21.70;99.90;;;;;;5032940;28;20481;-69
2023/08/02 08:04:06;;;;;;;1999.90;999.90;;;21.70;99.90;;;;;;5029662;28;20119;-70
2023/08/02 08:06:32;;;;;;;1999.90;999.90;;;21.70;99.90;;;;;;5031353;28;20052;-69
2023/08/02 08:08:57;;;;;;;1999.90;999.90;;;21.70;99.90;;;;;;5028939;28;20034;-70
2023/08/02 08:11:27;;;;;;;1999.90;999.90;;;21.60;99.90;;;;;;5026359;28;20033;-69
2023/08/02 08:13:52;;;;;;;1999.90;999.90;;;21.60;99.90;;;;;;5032594;28;20030;-69
2023/08/02 08:16:18;;;;;;;1999.90;999.90;;;21.50;99.90;;;;;;5032703;28;20119;-69
2023/08/02 08:18:44;;;;;;;1999.90;999.90;;;21.30;99.90;;;;;;5030489;28;20057;-71
2023/08/02 08:21:09;;;;;;;1999.90;999.90;;;21.00;99.90;;;;;;5032101;28;20057;-70
2023/08/02 08:23:35;;;;;;;1999.90;999.90;;;20.70;99.90;;;;;;5014283;28;20420;-76
2023/08/02 08:26:01;;;;;;;1999.90;999.90;;;20.60;99.90;;;;;;5030279;28;20104;-69
2023/08/02 08:28:26;;;;;;;1999.90;999.90;;;20.50;99.90;;;;;;5031836;28;20544;-68
2023/08/02 08:30:59;;;;;;;1999.90;999.90;;;20.40;99.90;;;;;;5029422;28;20025;-69
2023/08/02 08:33:25;;;;;;;1999.90;999.90;;;20.50;99.90;;;;;;5009305;28;20029;-76
2023/08/02 08:35:50;;;;;;;1999.90;999.90;;;20.60;99.90;;;;;;5012164;28;20040;-69
2023/08/02 08:38:16;;;;;;;1999.90;999.90;;;20.60;99.90;;;;;;5029803;28;20443;-70
2023/08/02 08:40:41;;;;;;;1999.90;999.90;;;20.50;99.90;;;;;;5029538;28;20131;-69
2023/08/02 08:43:08;;;;;;;1999.90;999.90;;;20.60;99.90;;;;;;5032371;28;20053;-70
2023/08/02 08:45:35;;;;;;;1999.90;999.90;;;20.90;99.90;;;;;;5012438;28;20030;-69
2023/08/02 08:48:01;;;;;;;1999.90;999.90;;;21.00;99.90;;;;;;5030377;28;20088;-70
2023/08/02 08:50:28;;;;;;;1999.90;999.90;;;21.70;99.90;;;;;;5028152;28;20092;-70
2023/08/02 08:52:56;;;;;;;1999.90;999.90;;;21.70;99.90;;;;;;5030041;28;20040;-71
2023/08/02 08:55:26;;;;;;;1999.90;999.90;;;21.70;99.90;;;;;;5031186;28;20029;-70
2023/08/02 08:57:52;;;;;;;1999.90;999.90;;;21.60;99.90;;;;;;5028145;28;20041;-71
2023/08/02 09:00:18;;;;;;;1999.90;999.90;;;21.50;99.90;;;;;;5030595;28;20040;-71
2023/08/02 09:02:44;;;;;;;1999.90;999.90;;;21.60;99.90;;;;;;5031123;28;20126;-71
2023/08/02 09:05:10;;;;;;;1999.90;999.90;;;21.20;99.90;;;;;;5031459;28;20184;-70
2023/08/02 09:07:36;;;;;;;1999.90;999.90;;;21.00;99.90;;;;;;5031316;28;20029;-70
2023/08/02 09:10:01;;;;;;;1999.90;999.90;;;20.60;99.90;;;;;;5025862;28;20084;-70
2023/08/02 09:12:27;;;;;;;1999.90;999.90;;;20.20;99.90;;;;;;5030103;28;20048;-70
2023/08/02 09:15:02;;;;;;;1999.90;999.90;;;20.00;99.90;;;;;;5031182;28;20148;-70
2023/08/02 09:17:43;;;;;;;1999.90;999.90;;;20.10;99.90;;;;;;5030852;28;20531;-71
2023/08/02 09:20:09;;;;;;;1999.90;999.90;;;20.20;99.90;;;;;;5030500;28;20443;-69
2023/08/02 09:22:35;;;;;;;1999.90;999.90;;;20.20;99.90;;;;;;5030114;28;20091;-71
2023/08/02 09:25:03;;;;;;;1999.90;999.90;;;20.20;99.90;;;;;;5030738;28;20025;-70
2023/08/02 09:27:30;;;;;;;1999.90;999.90;;;20.20;99.90;;;;;;5030967;28;20133;-69
2023/08/02 09:29:56;;;;;;;1999.90;999.90;;;20.20;99.90;;;;;;5028979;28;20036;-69
2023/08/02 09:32:23;;;;;;;1999.90;999.90;;;20.50;99.90;;;;;;5027332;28;20100;-70
2023/08/02 09:34:57;;;;;;;1999.90;999.90;;;20.50;99.90;;;;;;5031247;28;20040;-69
2023/08/02 09:37:34;;;;;;;1999.90;999.90;;;20.70;99.90;;;;;;5029523;28;20100;-69
2023/08/02 09:40:00;;;;;;;1999.90;999.90;;;20.90;99.90;;;;;;5029296;28;20044;-79
2023/08/02 09:42:27;;;;;;;1999.90;999.90;;;23.70;99.90;;;;;;5030930;28;20024;-70
2023/08/02 09:45:03;;;;;;;1999.90;999.90;;;23.60;99.90;;;;;;5030688;28;20037;-71
2023/08/02 09:47:30;;;;;;;1999.90;999.90;;;24.40;99.90;;;;;;5009119;28;20421;-70
2023/08/02 09:50:09;;;;;;;1999.90;999.90;;;23.90;99.90;;;;;;5012971;28;20057;-70
2023/08/02 09:52:39;;;;;;;1999.90;999.90;;;24.80;99.90;;;;;;5030278;28;20404;-71
2023/08/02 09:55:06;;;;;;;1999.90;999.90;;;25.60;99.90;;;;;;5031037;28;20083;-71
2023/08/02 09:57:32;;;;;;;1999.90;999.90;;;26.40;99.90;;;;;;5029602;28;20028;-71
2023/08/02 10:00:04;;;;;;;1999.90;999.90;;;27.00;99.90;;;;;;5030665;28;20492;-70
2023/08/02 10:02:30;;;;;;;1999.90;999.90;;;26.80;99.90;;;;;;5030462;28;20505;-72
2023/08/02 10:04:58;;;;;;;1999.90;999.90;;;27.40;99.90;;;;;;5012571;28;20038;-71
2023/08/02 10:07:49;;;;;;;1999.90;999.90;;;26.80;99.90;;;;;;5030442;28;20096;-70
2023/08/02 10:10:37;;;;;;;1999.90;999.90;;;27.10;99.90;;;;;;5027545;28;20049;-71
2023/08/02 10:13:12;;;;;;;1999.90;999.90;;;28.10;99.90;;;;;;5030146;28;20503;-71
2023/08/02 10:15:40;;;;;;;1999.90;999.90;;;27.40;99.90;;;;;;5031039;28;20029;-71
2023/08/02 10:18:06;;;;;;;1999.90;999.90;;;26.70;99.90;;;;;;5031671;28;20022;-76
2023/08/02 10:20:33;;;;;;;1999.90;999.90;;;27.80;99.90;;;;;;5015619;28;20095;-77
2023/08/02 10:23:05;;;;;;;1999.90;999.90;;;26.40;99.90;;;;;;5033042;28;20026;-70
2023/08/02 10:25:32;;;;;;;1999.90;999.90;;;23.80;99.90;;;;;;5035050;28;20384;-71
2023/08/02 10:27:59;;;;;;;1999.90;999.90;;;23.00;99.90;;;;;;5033386;28;20033;-78
2023/08/02 10:30:26;;;;;;;1999.90;999.90;;;23.30;99.90;;;;;;5034031;28;20026;-78
2023/08/02 10:33:18;;;;;;;1999.90;999.90;;;24.20;99.90;;;;;;5034094;28;20135;-70
2023/08/02 10:35:55;;;;;;;1999.90;999.90;;;24.70;99.90;;;;;;5033676;28;20064;-69
2023/08/02 10:38:28;;;;;;;1999.90;999.90;;;24.70;99.90;;;;;;5013912;28;20029;-71
2023/08/02 10:41:01;;;;;;;;;;;24.40;99.90;;;;;;5017400;28;20040;-70
2023/08/02 10:43:27;;;;;;;1999.90;999.90;;;24.90;99.90;;;;;;5034345;28;19928;-77
2023/08/02 10:46:25;;;;;;;1999.90;999.90;;;25.30;99.90;;;;;;5038771;28;20025;-76
2023/08/02 10:48:51;;;;;;;1999.90;999.90;;;25.60;99.90;;;;;;5029198;28;20026;-70
2023/08/02 10:51:37;;;;;;;1999.90;999.90;;;26.20;99.90;;;;;;5032980;28;20025;-70
2023/08/02 10:54:22;;;;;;;1999.90;999.90;;;27.20;99.90;;;;;;5022633;28;20053;-69
2023/08/02 10:56:53;;;;;;;1999.90;999.90;;;27.40;99.90;;;;;;5028608;28;20047;-70
2023/08/02 10:59:25;;;;;;;1999.90;999.90;;;27.50;99.90;;;;;;5033240;28;20043;-70
2023/08/02 11:02:10;;;;;;;1999.90;999.90;;;27.20;99.90;;;;;;5008331;28;20026;-71
2023/08/02 11:04:40;;;;;;;1999.90;999.90;;;26.90;99.90;;;;;;5033827;28;20148;-70
2023/08/02 11:07:21;;;;;;;1999.90;999.90;;;26.70;99.90;;;;;;5016103;28;20535;-70
2023/08/02 11:09:55;;;;;;;1999.90;999.90;;;25.90;99.90;;;;;;5015517;28;20080;-77
2023/08/02 11:12:22;;;;;;;1999.90;999.90;;;25.60;99.90;;;;;;5015666;28;20034;-76
2023/08/02 11:14:50;;;;;;;1999.90;999.90;;;24.60;99.90;;;;;;5033089;28;20065;-70
2023/08/02 11:17:18;;;;;;;1999.90;999.90;;;24.80;99.90;;;;;;5014724;28;20034;-70
2023/08/02 11:19:48;;;;;;;1999.90;999.90;;;25.20;99.90;;;;;;5033356;28;20164;-73
2023/08/02 11:22:14;;;;;;;1999.90;999.90;;;24.60;99.90;;;;;;5016088;28;20032;-73
2023/08/02 11:24:45;;;;;;;1999.90;999.90;;;24.80;99.90;;;;;;5015182;28;20152;-74
2023/08/02 11:27:21;;;;;;;1999.90;999.90;;;24.60;99.90;;;;;;5032858;28;20499;-70
2023/08/02 11:30:19;;;;;;;1999.90;999.90;;;24.20;99.90;;;;;;5025794;28;20477;-70
2023/08/02 11:32:46;;;;;;;1999.90;999.90;;;24.30;99.90;;;;;;5020975;28;20090;-70
2023/08/02 11:35:16;;;;;;;1999.90;999.90;;;24.30;99.90;;;;;;5031997;28;20033;-78
2023/08/02 11:37:42;;;;;;;1999.90;999.90;;;23.40;99.90;;;;;;5014290;28;20079;-69
2023/08/02 11:40:09;;;;;;;1999.90;999.90;;;22.80;99.90;;;;;;5015307;28;20554;-69
2023/08/02 11:42:48;;;;;;;1999.90;999.90;;;23.50;99.90;;;;;;5032958;28;20036;-70
2023/08/02 11:45:26;;;;;;;1999.90;999.90;;;24.10;99.90;;;;;;5032773;28;20048;-68
2023/08/02 11:47:52;;;;;;;1999.90;999.90;;;24.10;99.90;;;;;;5032349;28;20028;-69
2023/08/02 11:50:26;;;;;;;1999.90;999.90;;;23.70;99.90;;;;;;5032708;28;20025;-74
2023/08/02 11:52:52;;;;;;;1999.90;999.90;;;23.60;99.90;;;;;;5015167;28;20025;-69
2023/08/02 11:55:21;;;;;;;1999.90;999.90;;;24.40;99.90;;;;;;5015371;28;20025;-69
2023/08/02 11:57:48;;;;;;;1999.90;999.90;;;24.40;99.90;;;;;;5032325;28;20191;-70
2023/08/02 12:00:14;;;;;;;1999.90;999.90;;;24.70;99.90;;;;;;5031937;28;20029;-69